Time,TemperatureF,DewpointF,PressureIn,WindDirection,WindDirectionDegrees,WindSpeedMPH,WindSpeedGustMPH,Humidity,HourlyPrecipIn,Conditions,Clouds,dailyrainin,SoftwareType,DateUTC
2013-09-13 12:13:00,76.0,-99.9,-100.00,SE,140,7.0,14.0,-999,-99.99,,,-99.99,,2013-09-13 17:13:00,
2013-09-13 12:53:00,78.0,-99.9,-100.00,SE,131,4.0,13.0,-999,-99.99,,,-99.99,,2013-09-13 17:53:00,
2013-09-13 13:02:00,78.0,-99.9,-100.00,SE,131,4.0,13.0,-999,-99.99,,,-99.99,,2013-09-13 18:02:00,
2013-09-13 13:52:00,80.0,-99.9,-100.00,SSE,148,9.0,11.0,-999,-99.99,,,-99.99,,2013-09-13 18:52:00,
2013-09-13 14:00:00,81.0,-99.9,-100.00,East,99,11.0,16.0,-999,-99.99,,,-99.99,,2013-09-13 19:00:00,
2013-09-13 14:11:00,79.0,-99.9,-100.00,SSE,148,9.0,13.0,-999,-99.99,,,-99.99,,2013-09-13 19:11:00,
2013-09-13 14:22:00,79.0,-99.9,-100.00,SSE,148,9.0,13.0,-999,-99.99,,,-99.99,,2013-09-13 19:22:00,
2013-09-13 14:43:00,81.0,-99.9,-100.00,East,99,11.0,16.0,-999,-99.99,,,-99.99,,2013-09-13 19:43:00,
2013-09-13 14:52:00,81.0,-99.9,-100.00,East,99,11.0,16.0,-999,-99.99,,,-99.99,,2013-09-13 19:52:00,
2013-09-13 15:00:00,81.0,-99.9,-100.00,ESE,102,15.0,20.0,-999,-99.99,,,-99.99,,2013-09-13 20:00:00,
2013-09-13 15:52:00,81.0,-99.9,-100.00,ESE,102,15.0,20.0,-999,-99.99,,,-99.99,,2013-09-13 20:52:00,
2013-09-13 16:00:00,84.0,-99.9,-100.00,East,79,8.0,14.0,-999,-99.99,,,-99.99,,2013-09-13 21:00:00,
2013-09-13 16:40:00,80.0,-99.9,-100.00,ESE,106,9.0,11.0,-999,-99.99,,,-99.99,,2013-09-13 21:40:00,
2013-09-13 16:54:00,84.0,-99.9,-100.00,East,79,8.0,14.0,-999,-99.99,,,-99.99,,2013-09-13 21:54:00,
2013-09-13 17:24:00,80.0,-99.9,-100.00,ESE,106,9.0,11.0,-999,-99.99,,,-99.99,,2013-09-13 22:24:00,
2013-09-13 17:33:00,80.0,-99.9,-100.00,ESE,106,9.0,11.0,-999,-99.99,,,-99.99,,2013-09-13 22:33:00,
2013-09-13 18:20:00,81.0,-99.9,-100.00,East,94,7.0,13.0,-999,-99.99,,,-99.99,,2013-09-13 23:20:00,
2013-09-13 18:22:00,83.0,-99.9,-100.00,East,94,10.0,14.0,-999,-99.99,,,-99.99,,2013-09-13 23:22:00,
2013-09-13 18:34:00,83.0,-99.9,-100.00,East,94,10.0,14.0,-999,-99.99,,,-99.99,,2013-09-13 23:34:00,
2013-09-13 18:43:00,83.0,-99.9,-100.00,East,94,10.0,14.0,-999,-99.99,,,-99.99,,2013-09-13 23:43:00,
2013-09-13 18:53:00,79.0,-99.9,-100.00,ESE,104,9.0,14.0,-999,-99.99,,,-99.99,,2013-09-13 23:53:00,
2013-09-13 19:12:00,81.0,-99.9,-100.00,East,94,7.0,13.0,-999,-99.99,,,-99.99,,2013-09-14 00:12:00,
2013-09-13 20:12:00,79.0,-99.9,-100.00,ESE,119,10.0,14.0,-999,-99.99,,,-99.99,,2013-09-14 01:12:00,
2013-09-13 20:22:00,79.0,-99.9,-100.00,ESE,119,10.0,14.0,-999,-99.99,,,-99.99,,2013-09-14 01:22:00,
2013-09-13 21:12:00,74.0,-99.9,-100.00,East,85,5.0,7.0,-999,-99.99,,,-99.99,,2013-09-14 02:12:00,
2013-09-13 21:22:00,74.0,-99.9,-100.00,East,85,5.0,7.0,-999,-99.99,,,-99.99,,2013-09-14 02:22:00,
2013-09-13 22:12:00,72.0,-99.9,-100.00,East,97,9.0,10.0,-999,-99.99,,,-99.99,,2013-09-14 03:12:00,
2013-09-13 22:22:00,72.0,-99.9,-100.00,East,97,9.0,10.0,-999,-99.99,,,-99.99,,2013-09-14 03:22:00,
2013-09-13 23:14:00,70.0,-99.9,-100.00,ESE,108,7.0,9.0,-999,-99.99,,,-99.99,,2013-09-14 04:14:00,
2013-09-13 23:24:00,70.0,-99.9,-100.00,ESE,108,7.0,9.0,-999,-99.99,,,-99.99,,2013-09-14 04:24:00,